NCAR-RAP Real-Time Weather Data

Output produced by METARs form (12 May 2021  11:22 UTC)
found at http://weather.rap.ucar.edu/surface/
 
KLBB 121053Z 05005KT 10SM FEW017 FEW055 SCT100 08/04 A3030 RMK AO2 SLP246 T00780039
KLBB 120953Z 04013KT 10SM FEW011 OVC055 09/04 A3028 RMK AO2 SLP238 T00890044
KLBB 120853Z 05010KT 10SM FEW015 SCT025 OVC050 09/04 A3028 RMK AO2 SLP237 T00890044 58001
KLBB 120836Z 04014KT 10SM FEW015 SCT025 OVC050 09/04 A3028 RMK AO2 T00890044
KLBB 120753Z 05010KT 10SM BKN015 OVC025 09/04 A3029 RMK AO2 SLP241 T00890044
KLBB 120750Z 04010KT 10SM BKN015 OVC025 09/05 A3029 RMK AO2
KLBB 120653Z 06015G23KT 10SM BKN012 OVC020 09/06 A3028 RMK AO2 SLP240 T00890056
KLBB 120553Z 06014KT 10SM BKN011 OVC015 09/06 A3028 RMK AO2 DZE38 SLP240 P0000 60000 T00940061 10111 20094 401280094 53020
KLBB 120540Z 05017KT 10SM SCT012 OVC016 09/06 A3028 RMK AO2 DZE38 P0000 T00940056
KLBB 120453Z 05016KT 10SM -DZ OVC012 09/07 A3024 RMK AO2 SLP224 P0000 T00940067
KLBB 120448Z 05015G22KT 9SM -DZ OVC011 10/07 A3023 RMK AO2 P0000
KLBB 120353Z 05014G20KT 10SM -DZ OVC009 10/07 A3022 RMK AO2 DZB42 SLP216 P0000 T01000067
KLBB 120253Z 05017G22KT 10SM OVC009 10/07 A3017 RMK AO2 SLP200 T01000067 53015
KLBB 120224Z 06018KT 10SM OVC010 10/07 A3016 RMK AO2 CIG 008V012 T01000067
KLBB 120153Z 06014G19KT 10SM OVC008 10/07 A3014 RMK AO2 CIG 007V011 SLP190 T01000067
KLBB 120053Z 06015KT 10SM OVC008 11/07 A3013 RMK AO2 CIG 008V011 SLP187 T01060072
KLBB 112353Z 05014KT 10SM OVC009 11/08 A3012 RMK AO2 SLP183 60000 T01110078 10128 20106 53008
KLBB 112253Z 05013KT 10SM OVC009 12/08 A3011 RMK AO2 CIG 006V012 SLP176 T01170078
KLBB 112153Z 05015KT 10SM OVC009 12/08 A3010 RMK AO2 CIG 008V012 SLP172 T01220083
KLBB 112053Z 05013KT 10SM OVC009 12/08 A3010 RMK AO2 DZE00 SLP171 P0000 60000 T01220083 50000
KLBB 111953Z 05010KT 10SM -DZ OVC007 12/09 A3010 RMK AO2 DZE08B27E28B48RAB25E36 SLP172 P0000 T01170089
KLBB 111949Z 05011KT 10SM -DZ OVC007 12/09 A3010 RMK AO2 DZE08B27E28B48RAB25E36 P0000